createdAt,value
2018-05-19T00:00:04.603Z,0.00
2018-05-19T00:01:04.608Z,0.00
2018-05-19T00:02:25.637Z,0.00
2018-05-19T00:03:04.639Z,0.00
2018-05-19T00:04:04.649Z,0.00
2018-05-19T00:05:04.650Z,0.00
2018-05-19T00:06:04.676Z,0.00
2018-05-19T00:07:04.681Z,0.00
2018-05-19T00:08:25.715Z,0.00
2018-05-19T00:09:04.702Z,0.00
2018-05-19T00:10:04.709Z,0.00
2018-05-19T00:11:04.719Z,0.00
2018-05-19T00:12:04.734Z,0.00
2018-05-19T00:13:04.745Z,0.00
2018-05-19T00:14:25.768Z,0.00
2018-05-19T00:15:04.761Z,0.00
2018-05-19T00:16:04.774Z,0.00
2018-05-19T00:17:04.788Z,0.00
2018-05-19T00:18:04.801Z,0.00
2018-05-19T00:19:04.808Z,0.00
2018-05-19T00:20:25.824Z,0.00
2018-05-19T00:21:04.838Z,0.00
2018-05-19T00:22:04.837Z,0.00
2018-05-19T00:23:04.846Z,0.00
2018-05-19T00:24:04.858Z,0.00
2018-05-19T00:25:04.873Z,0.00
2018-05-19T00:26:25.907Z,0.00
2018-05-19T00:27:04.898Z,0.00
2018-05-19T00:28:04.901Z,0.00
2018-05-19T00:29:04.914Z,0.00
2018-05-19T00:30:04.930Z,0.00
2018-05-19T00:31:04.930Z,0.00
2018-05-19T00:32:25.950Z,0.00
2018-05-19T00:33:04.950Z,0.00
2018-05-19T00:34:04.963Z,0.00
2018-05-19T00:35:04.967Z,0.00
2018-05-19T00:36:04.987Z,0.00
2018-05-19T00:37:04.993Z,0.00
2018-05-19T00:38:26.012Z,0.00
2018-05-19T00:39:05.008Z,0.00
2018-05-19T00:40:05.022Z,0.00
2018-05-19T00:41:05.046Z,0.00
2018-05-19T00:42:05.054Z,0.00
2018-05-19T00:43:05.057Z,0.00
2018-05-19T00:44:26.084Z,0.00
2018-05-19T00:45:05.081Z,0.00
2018-05-19T00:46:05.083Z,0.00
2018-05-19T00:47:05.107Z,0.00
2018-05-19T00:48:05.112Z,0.00
2018-05-19T00:49:05.123Z,0.00
2018-05-19T00:50:26.143Z,0.00
2018-05-19T00:51:05.134Z,0.00
2018-05-19T00:52:05.156Z,0.00
2018-05-19T00:53:05.157Z,0.00
2018-05-19T00:54:05.171Z,0.00
2018-05-19T00:55:05.189Z,0.00
2018-05-19T00:56:26.197Z,0.00
2018-05-19T00:57:05.220Z,0.00
2018-05-19T00:58:05.206Z,0.00
2018-05-19T00:59:05.222Z,0.00
2018-05-19T01:00:05.234Z,0.00
2018-05-19T01:01:05.241Z,0.00
2018-05-19T01:02:26.274Z,0.00
2018-05-19T01:03:05.262Z,0.00
2018-05-19T01:04:05.273Z,0.00
2018-05-19T01:05:05.282Z,0.00
2018-05-19T01:06:05.304Z,0.00
2018-05-19T01:07:05.301Z,0.00
2018-05-19T01:08:26.327Z,0.00
2018-05-19T01:09:05.324Z,0.00
2018-05-19T01:10:05.346Z,0.00
2018-05-19T01:11:05.352Z,0.00
2018-05-19T01:12:05.346Z,0.00
2018-05-19T01:13:05.358Z,0.00
2018-05-19T01:14:26.389Z,0.00
2018-05-19T01:15:05.385Z,0.00
2018-05-19T01:16:05.397Z,0.00
2018-05-19T01:17:05.408Z,0.00
2018-05-19T01:18:05.415Z,0.00
2018-05-19T01:19:05.416Z,0.00
2018-05-19T01:20:26.442Z,0.00
2018-05-19T01:21:05.454Z,0.00
2018-05-19T01:22:05.455Z,0.00
2018-05-19T01:23:05.458Z,0.00
2018-05-19T01:24:05.586Z,0.00
2018-05-19T01:25:05.483Z,0.00
2018-05-19T01:26:26.501Z,0.00
2018-05-19T01:27:05.505Z,0.00
2018-05-19T01:28:05.507Z,0.00
2018-05-19T01:29:05.527Z,0.00
2018-05-19T01:30:05.540Z,0.00
2018-05-19T01:31:05.551Z,0.00
2018-05-19T01:32:26.571Z,0.00
2018-05-19T01:33:05.571Z,0.00
2018-05-19T01:34:05.587Z,0.00
2018-05-19T01:35:05.592Z,0.00
2018-05-19T01:36:05.633Z,0.00
2018-05-19T01:37:05.597Z,0.00
2018-05-19T01:38:26.632Z,0.00
2018-05-19T01:39:05.622Z,0.00
2018-05-19T01:40:05.638Z,0.00
2018-05-19T01:41:05.679Z,0.00
2018-05-19T01:42:05.659Z,0.00
2018-05-19T01:43:05.669Z,0.00
2018-05-19T01:44:26.686Z,0.00
2018-05-19T01:45:05.690Z,0.00
2018-05-19T01:46:05.690Z,0.00
2018-05-19T01:47:05.708Z,0.00
2018-05-19T01:48:05.709Z,0.00
2018-05-19T01:49:05.728Z,0.00
2018-05-19T01:50:26.753Z,0.00
2018-05-19T01:51:05.754Z,0.00
2018-05-19T01:52:05.764Z,0.00
2018-05-19T01:53:05.764Z,0.00
2018-05-19T01:54:05.771Z,0.00
2018-05-19T01:55:05.781Z,0.00
2018-05-19T01:56:26.810Z,0.00
2018-05-19T01:57:05.802Z,0.00
2018-05-19T01:58:05.813Z,0.00
2018-05-19T01:59:05.833Z,0.00
2018-05-19T02:00:05.849Z,0.00
2018-05-19T02:01:05.842Z,0.00
2018-05-19T02:02:26.867Z,0.00
2018-05-19T02:03:05.868Z,0.00
2018-05-19T02:04:05.869Z,0.00
2018-05-19T02:05:05.892Z,0.00
2018-05-19T02:06:05.898Z,0.00
2018-05-19T02:07:05.899Z,0.00
2018-05-19T02:08:26.937Z,0.00
2018-05-19T02:09:05.932Z,0.00
2018-05-19T02:10:05.930Z,0.00
2018-05-19T02:11:05.954Z,0.00
2018-05-19T02:12:05.956Z,0.00
2018-05-19T02:13:05.974Z,0.00
2018-05-19T02:14:26.993Z,0.00
2018-05-19T02:15:05.989Z,0.00
2018-05-19T02:16:05.990Z,0.00
2018-05-19T02:17:05.999Z,0.00
2018-05-19T02:18:06.022Z,0.00
2018-05-19T02:19:06.035Z,0.00
2018-05-19T02:20:27.053Z,0.00
2018-05-19T02:21:06.055Z,0.00
2018-05-19T02:22:06.060Z,0.00
2018-05-19T02:23:06.065Z,0.00
2018-05-19T02:24:06.077Z,0.00
2018-05-19T02:25:06.082Z,0.00
2018-05-19T02:26:27.099Z,0.00
2018-05-19T02:27:06.110Z,0.00
2018-05-19T02:28:06.121Z,0.00
2018-05-19T02:29:06.138Z,0.00
2018-05-19T02:30:06.140Z,0.00
2018-05-19T02:31:06.139Z,0.00
2018-05-19T02:32:27.161Z,0.00
2018-05-19T02:33:06.168Z,0.00
2018-05-19T02:34:06.169Z,0.00
2018-05-19T02:35:06.183Z,0.00
2018-05-19T02:36:06.190Z,0.00
2018-05-19T02:37:06.200Z,0.00
2018-05-19T02:38:27.218Z,0.00
2018-05-19T02:39:06.214Z,0.00
2018-05-19T02:40:06.226Z,0.00
2018-05-19T02:41:06.241Z,0.00
2018-05-19T02:42:06.246Z,0.00
2018-05-19T02:43:06.259Z,0.00
2018-05-19T02:44:27.291Z,0.00
2018-05-19T02:45:06.280Z,0.00
2018-05-19T02:46:06.281Z,0.00
2018-05-19T02:47:06.294Z,0.00
2018-05-19T02:48:06.298Z,0.00
2018-05-19T02:49:06.308Z,0.00
2018-05-19T02:50:27.337Z,0.00
2018-05-19T02:51:06.328Z,0.00
2018-05-19T02:52:06.349Z,0.00
2018-05-19T02:53:06.357Z,0.00
2018-05-19T02:54:06.366Z,0.00
2018-05-19T02:55:06.374Z,0.00
2018-05-19T02:56:27.397Z,0.00
2018-05-19T02:57:06.396Z,0.00
2018-05-19T02:58:06.400Z,0.00
2018-05-19T02:59:06.408Z,0.00
2018-05-19T03:00:06.415Z,0.00
2018-05-19T03:01:06.428Z,0.00
2018-05-19T03:02:27.451Z,0.00
2018-05-19T03:03:06.453Z,0.00
2018-05-19T03:04:06.464Z,0.00
2018-05-19T03:05:06.470Z,0.00
2018-05-19T03:06:06.476Z,0.00
2018-05-19T03:07:06.490Z,0.00
2018-05-19T03:08:27.511Z,0.00
2018-05-19T03:09:06.510Z,0.00
2018-05-19T03:10:06.519Z,0.00
2018-05-19T03:11:06.529Z,0.00
2018-05-19T03:12:06.541Z,0.00
2018-05-19T03:13:06.544Z,0.00
2018-05-19T03:14:27.577Z,0.00
2018-05-19T03:15:06.568Z,0.00
2018-05-19T03:16:06.571Z,0.00
2018-05-19T03:17:06.637Z,0.00
2018-05-19T03:18:06.606Z,0.00
2018-05-19T03:19:06.598Z,0.00
2018-05-19T03:20:27.629Z,0.00
2018-05-19T03:21:06.630Z,0.00
2018-05-19T03:22:06.636Z,0.00
2018-05-19T03:23:06.642Z,0.00
2018-05-19T03:24:06.659Z,0.00
2018-05-19T03:25:06.667Z,0.00
2018-05-19T03:26:27.694Z,0.00
2018-05-19T03:27:06.681Z,0.00
2018-05-19T03:28:06.689Z,0.00
2018-05-19T03:29:06.697Z,0.00
2018-05-19T03:30:06.715Z,0.00
2018-05-19T03:31:06.719Z,0.00
2018-05-19T03:32:27.747Z,0.00
2018-05-19T03:33:06.731Z,0.00
2018-05-19T03:34:06.747Z,0.00
2018-05-19T03:35:06.760Z,0.00
2018-05-19T03:36:06.848Z,0.00
2018-05-19T03:37:06.784Z,5.63
2018-05-19T03:38:27.804Z,5.63
2018-05-19T03:39:06.799Z,5.63
2018-05-19T03:40:06.809Z,5.63
2018-05-19T03:41:06.829Z,5.63
2018-05-19T03:42:06.821Z,5.63
2018-05-19T03:43:06.843Z,5.63
2018-05-19T03:44:27.856Z,5.63
2018-05-19T03:45:06.858Z,5.63
2018-05-19T03:46:06.869Z,5.63
2018-05-19T03:47:06.877Z,5.63
2018-05-19T03:48:06.877Z,5.63
2018-05-19T03:49:06.893Z,11.25
2018-05-19T03:50:27.914Z,11.25
2018-05-19T03:51:06.910Z,11.25
2018-05-19T03:52:06.918Z,11.25
2018-05-19T03:53:06.948Z,11.25
2018-05-19T03:54:06.945Z,11.25
2018-05-19T03:55:06.958Z,11.25
2018-05-19T03:56:27.978Z,11.25
2018-05-19T03:57:06.974Z,11.25
2018-05-19T03:58:06.989Z,11.25
2018-05-19T03:59:06.985Z,16.88
2018-05-19T04:00:06.993Z,16.88
2018-05-19T04:01:07.004Z,16.88
2018-05-19T04:02:28.027Z,16.88
2018-05-19T04:03:07.017Z,16.88
2018-05-19T04:04:07.020Z,16.88
2018-05-19T04:05:07.037Z,16.88
2018-05-19T04:06:07.048Z,16.88
2018-05-19T04:07:07.063Z,22.50
2018-05-19T04:08:28.082Z,22.50
2018-05-19T04:09:07.095Z,22.50
2018-05-19T04:10:07.090Z,22.50
2018-05-19T04:11:07.103Z,22.50
2018-05-19T04:12:07.115Z,22.50
2018-05-19T04:13:07.117Z,28.13
2018-05-19T04:14:28.147Z,28.13
2018-05-19T04:15:07.144Z,28.13
2018-05-19T04:16:07.137Z,28.13
2018-05-19T04:17:07.163Z,28.13
2018-05-19T04:18:07.167Z,28.13
2018-05-19T04:19:07.175Z,33.75
2018-05-19T04:20:28.196Z,33.75
2018-05-19T04:21:07.196Z,33.75
2018-05-19T04:22:07.220Z,33.75
2018-05-19T04:23:07.213Z,33.75
2018-05-19T04:24:07.227Z,39.38
2018-05-19T04:25:07.230Z,39.38
2018-05-19T04:26:28.248Z,39.38
2018-05-19T04:27:07.249Z,39.38
2018-05-19T04:28:07.246Z,39.38
2018-05-19T04:29:07.268Z,39.38
2018-05-19T04:30:07.272Z,39.38
2018-05-19T04:31:07.283Z,39.38
2018-05-19T04:32:28.305Z,39.38
2018-05-19T04:33:07.309Z,39.38
2018-05-19T04:34:07.310Z,45.00
2018-05-19T04:35:07.323Z,45.00
2018-05-19T04:36:07.329Z,45.00
2018-05-19T04:37:07.351Z,45.00
2018-05-19T04:38:28.361Z,45.00
2018-05-19T04:39:07.360Z,45.00
2018-05-19T04:40:07.378Z,45.00
2018-05-19T04:41:07.386Z,45.00
2018-05-19T04:42:07.386Z,45.00
2018-05-19T04:43:07.406Z,45.00
2018-05-19T04:44:28.410Z,45.00
2018-05-19T04:45:07.414Z,45.00
2018-05-19T04:46:07.421Z,45.00
2018-05-19T04:47:07.441Z,45.00
2018-05-19T04:48:07.463Z,45.00
2018-05-19T04:49:07.453Z,45.00
2018-05-19T04:50:28.481Z,50.63
2018-05-19T04:51:07.469Z,50.63
2018-05-19T04:52:07.478Z,50.63
2018-05-19T04:53:07.486Z,50.63
2018-05-19T04:54:07.494Z,50.63
2018-05-19T04:55:07.504Z,50.63
2018-05-19T04:56:28.525Z,56.25
2018-05-19T04:57:07.525Z,56.25
2018-05-19T04:58:07.541Z,56.25
2018-05-19T04:59:07.541Z,56.25
2018-05-19T05:00:07.559Z,61.88
2018-05-19T05:01:07.566Z,61.88
2018-05-19T05:02:28.613Z,61.88
2018-05-19T05:03:07.583Z,61.88
2018-05-19T05:04:07.666Z,61.88
2018-05-19T05:05:07.598Z,61.88
2018-05-19T05:06:07.615Z,61.88
2018-05-19T05:07:07.626Z,61.88
2018-05-19T05:08:28.648Z,67.50
2018-05-19T05:09:07.639Z,67.50
2018-05-19T05:10:07.650Z,67.50
2018-05-19T05:11:07.665Z,67.50
2018-05-19T05:12:07.664Z,67.50
2018-05-19T05:13:07.677Z,67.50
2018-05-19T05:14:28.702Z,67.50
2018-05-19T05:15:07.700Z,67.50
2018-05-19T05:16:07.699Z,67.50
2018-05-19T05:17:07.722Z,67.50
2018-05-19T05:18:07.725Z,67.50
2018-05-19T05:19:07.735Z,73.13
2018-05-19T05:20:28.757Z,73.13
2018-05-19T05:21:07.751Z,73.13
2018-05-19T05:22:07.762Z,73.13
2018-05-19T05:23:07.773Z,78.75
2018-05-19T05:24:07.858Z,78.75
2018-05-19T05:25:07.786Z,78.75
2018-05-19T05:26:28.808Z,78.75
2018-05-19T05:27:07.909Z,78.75
2018-05-19T05:28:07.823Z,78.75
2018-05-19T05:29:07.831Z,84.38
2018-05-19T05:30:07.847Z,78.75
2018-05-19T05:31:08.279Z,84.38
2018-05-19T05:32:28.876Z,84.38
2018-05-19T05:33:07.866Z,84.38
2018-05-19T05:34:07.883Z,78.75
2018-05-19T05:35:07.889Z,84.38
2018-05-19T05:36:07.897Z,84.38
2018-05-19T05:37:07.912Z,84.38
2018-05-19T05:38:28.976Z,84.38
2018-05-19T05:39:07.930Z,84.38
2018-05-19T05:40:07.931Z,84.38
2018-05-19T05:41:08.636Z,84.38
2018-05-19T05:42:07.956Z,84.38
2018-05-19T05:43:08.052Z,84.38
2018-05-19T05:44:28.981Z,84.38
2018-05-19T05:45:07.992Z,90.00
2018-05-19T05:46:08.005Z,84.38
2018-05-19T05:47:08.010Z,84.38
2018-05-19T05:48:08.635Z,84.38
2018-05-19T05:49:08.031Z,90.00
2018-05-19T05:50:29.088Z,90.00
2018-05-19T05:51:08.046Z,90.00
2018-05-19T05:52:08.060Z,90.00
2018-05-19T05:53:08.170Z,90.00
2018-05-19T05:54:08.072Z,90.00
2018-05-19T05:55:08.089Z,95.63
2018-05-19T05:56:29.110Z,95.63
2018-05-19T05:57:08.104Z,95.63
2018-05-19T05:58:08.113Z,95.63
2018-05-19T05:59:08.131Z,90.00
2018-05-19T06:00:08.156Z,95.63
2018-05-19T06:01:08.142Z,95.63
2018-05-19T06:02:29.161Z,95.63
2018-05-19T06:03:08.167Z,101.25
2018-05-19T06:04:09.152Z,101.25
2018-05-19T06:05:08.199Z,101.25
2018-05-19T06:06:08.198Z,95.63
2018-05-19T06:07:08.206Z,95.63
2018-05-19T06:08:29.230Z,95.63
2018-05-19T06:09:08.231Z,95.63
2018-05-19T06:10:08.231Z,95.63
2018-05-19T06:11:08.245Z,95.63
2018-05-19T06:12:08.327Z,95.63
2018-05-19T06:13:08.263Z,101.25
2018-05-19T06:14:29.289Z,95.63
2018-05-19T06:15:08.284Z,95.63
2018-05-19T06:16:08.289Z,101.25
2018-05-19T06:17:08.300Z,101.25
2018-05-19T06:18:08.309Z,106.88
2018-05-19T06:19:08.323Z,112.50
2018-05-19T06:20:29.339Z,118.13
2018-05-19T06:21:08.347Z,112.50
2018-05-19T06:22:08.351Z,112.50
2018-05-19T06:23:08.371Z,118.13
2018-05-19T06:24:08.381Z,112.50
2018-05-19T06:25:08.391Z,112.50
2018-05-19T06:26:29.403Z,118.13
2018-05-19T06:27:08.488Z,112.50
2018-05-19T06:28:08.413Z,112.50
2018-05-19T06:29:08.418Z,112.50
2018-05-19T06:30:08.436Z,118.13
2018-05-19T06:31:08.443Z,118.13
2018-05-19T06:32:29.462Z,123.75
2018-05-19T06:33:08.462Z,118.13
2018-05-19T06:34:08.478Z,118.13
2018-05-19T06:35:08.484Z,123.75
2018-05-19T06:36:08.492Z,123.75
2018-05-19T06:37:08.493Z,123.75
2018-05-19T06:38:29.530Z,123.75
2018-05-19T06:39:08.527Z,129.38
2018-05-19T06:40:08.540Z,129.38
2018-05-19T06:41:09.111Z,123.75
2018-05-19T06:42:08.609Z,129.38
2018-05-19T06:43:08.565Z,129.38
2018-05-19T06:44:29.576Z,129.38
2018-05-19T06:45:08.590Z,135.00
2018-05-19T06:46:08.585Z,135.00
2018-05-19T06:47:08.601Z,135.00
2018-05-19T06:48:08.669Z,135.00
2018-05-19T06:49:08.625Z,140.63
2018-05-19T06:50:29.648Z,140.63
2018-05-19T06:51:08.641Z,140.63
2018-05-19T06:52:08.646Z,151.88
2018-05-19T06:53:08.658Z,146.25
2018-05-19T06:54:08.691Z,146.25
2018-05-19T06:55:08.682Z,146.25
2018-05-19T06:56:29.710Z,140.63
2018-05-19T06:57:08.773Z,146.25
2018-05-19T06:58:08.705Z,146.25
2018-05-19T06:59:08.726Z,146.25
2018-05-19T07:00:08.805Z,151.88
2018-05-19T07:01:08.795Z,151.88
2018-05-19T07:02:29.772Z,151.88
2018-05-19T07:03:08.786Z,151.88
2018-05-19T07:04:08.775Z,146.25
2018-05-19T07:05:08.792Z,146.25
2018-05-19T07:06:08.801Z,151.88
2018-05-19T07:07:08.795Z,157.50
2018-05-19T07:08:29.827Z,163.13
2018-05-19T07:09:08.824Z,168.75
2018-05-19T07:10:08.837Z,174.38
2018-05-19T07:11:09.733Z,174.38
2018-05-19T07:12:08.864Z,180.00
2018-05-19T07:13:08.871Z,185.63
2018-05-19T07:14:29.889Z,185.63
2018-05-19T07:15:09.710Z,196.88
2018-05-19T07:16:08.896Z,202.50
2018-05-19T07:17:08.908Z,208.13
2018-05-19T07:18:08.920Z,213.75
2018-05-19T07:19:08.928Z,213.75
2018-05-19T07:20:29.956Z,213.75
2018-05-19T07:21:08.994Z,219.38
2018-05-19T07:22:08.965Z,219.38
2018-05-19T07:23:08.965Z,225.00
2018-05-19T07:24:09.684Z,230.63
2018-05-19T07:25:08.998Z,230.63
2018-05-19T07:26:30.017Z,230.63
2018-05-19T07:27:09.016Z,236.25
2018-05-19T07:28:09.030Z,241.88
2018-05-19T07:29:09.033Z,247.50
2018-05-19T07:30:09.049Z,241.88
2018-05-19T07:31:09.069Z,253.13
2018-05-19T07:32:30.074Z,264.38
2018-05-19T07:33:09.072Z,258.75
2018-05-19T07:34:09.100Z,253.13
2018-05-19T07:35:09.109Z,253.13
2018-05-19T07:36:09.142Z,253.13
2018-05-19T07:37:09.123Z,258.75
2018-05-19T07:38:30.144Z,258.75
2018-05-19T07:39:09.146Z,258.75
2018-05-19T07:40:09.159Z,253.13
2018-05-19T07:41:09.163Z,253.13
2018-05-19T07:42:09.168Z,253.13
2018-05-19T07:43:09.193Z,258.75
2018-05-19T07:44:30.207Z,264.38
2018-05-19T07:45:09.206Z,270.00
2018-05-19T07:46:09.226Z,281.25
2018-05-19T07:47:09.237Z,292.50
2018-05-19T07:48:09.259Z,303.75
2018-05-19T07:49:09.270Z,309.38
2018-05-19T07:50:30.274Z,315.00
2018-05-19T07:51:09.291Z,315.00
2018-05-19T07:52:09.291Z,315.00
2018-05-19T07:53:09.303Z,320.63
2018-05-19T07:54:09.322Z,331.88
2018-05-19T07:55:09.316Z,343.13
2018-05-19T07:56:30.365Z,348.75
2018-05-19T07:57:09.346Z,343.13
2018-05-19T07:58:09.395Z,348.75
2018-05-19T07:59:09.365Z,354.38
2018-05-19T08:00:09.378Z,354.38
2018-05-19T08:01:09.394Z,360.00
2018-05-19T08:02:30.420Z,365.63
2018-05-19T08:03:09.427Z,365.63
2018-05-19T08:04:09.520Z,371.25
2018-05-19T08:05:09.446Z,371.25
2018-05-19T08:06:09.442Z,371.25
2018-05-19T08:07:09.453Z,371.25
2018-05-19T08:08:30.485Z,371.25
2018-05-19T08:09:09.487Z,371.25
2018-05-19T08:10:09.506Z,376.88
2018-05-19T08:11:09.508Z,393.75
2018-05-19T08:12:09.520Z,410.63
2018-05-19T08:13:09.526Z,393.75
2018-05-19T08:14:30.571Z,399.38
2018-05-19T08:15:09.551Z,399.38
2018-05-19T08:16:09.574Z,405.00
2018-05-19T08:17:09.585Z,388.13
2018-05-19T08:18:09.592Z,410.63
2018-05-19T08:19:09.598Z,416.25
2018-05-19T08:20:30.633Z,427.50
2018-05-19T08:21:09.626Z,433.13
2018-05-19T08:22:09.646Z,438.75
2018-05-19T08:23:09.652Z,433.13
2018-05-19T08:24:09.664Z,433.13
2018-05-19T08:25:09.678Z,444.38
2018-05-19T08:26:30.711Z,455.63
2018-05-19T08:27:09.702Z,450.00
2018-05-19T08:28:09.711Z,455.63
2018-05-19T08:29:09.728Z,455.63
2018-05-19T08:30:09.744Z,461.25
2018-05-19T08:31:09.751Z,461.25
2018-05-19T08:32:30.791Z,466.88
2018-05-19T08:33:09.779Z,450.00
2018-05-19T08:34:09.798Z,444.38
2018-05-19T08:35:09.839Z,450.00
2018-05-19T08:36:09.824Z,450.00
2018-05-19T08:37:09.831Z,450.00
2018-05-19T08:38:30.849Z,461.25
2018-05-19T08:39:09.859Z,472.50
2018-05-19T08:40:09.869Z,483.75
2018-05-19T08:41:09.901Z,495.00
2018-05-19T08:42:09.889Z,511.88
2018-05-19T08:43:09.906Z,534.38
2018-05-19T08:44:30.935Z,523.13
2018-05-19T08:45:09.928Z,534.38
2018-05-19T08:46:09.944Z,528.75
2018-05-19T08:47:09.948Z,540.00
2018-05-19T08:48:09.965Z,528.75
2018-05-19T08:49:09.977Z,523.13
2018-05-19T08:50:31.108Z,506.25
2018-05-19T08:51:10.001Z,506.25
2018-05-19T08:52:10.014Z,506.25
2018-05-19T08:53:10.041Z,495.00
2018-05-19T08:54:10.047Z,500.63
2018-05-19T08:55:10.055Z,483.75
2018-05-19T08:56:31.091Z,483.75
2018-05-19T08:57:10.091Z,483.75
2018-05-19T08:58:10.164Z,478.13
2018-05-19T08:59:10.112Z,478.13
2018-05-19T09:00:10.130Z,472.50
2018-05-19T09:01:10.136Z,466.88
2018-05-19T09:02:31.172Z,461.25
2018-05-19T09:03:10.168Z,466.88
2018-05-19T09:04:10.181Z,461.25
2018-05-19T09:05:10.200Z,455.63
2018-05-19T09:06:10.212Z,450.00
2018-05-19T09:07:10.216Z,450.00
2018-05-19T09:08:31.249Z,444.38
2018-05-19T09:09:10.246Z,438.75
2018-05-19T09:10:10.267Z,433.13
2018-05-19T09:11:10.278Z,433.13
2018-05-19T09:12:10.297Z,444.38
2018-05-19T09:13:10.297Z,444.38
2018-05-19T09:14:31.333Z,438.75
2018-05-19T09:15:10.329Z,438.75
2018-05-19T09:16:10.347Z,438.75
2018-05-19T09:17:10.361Z,444.38
2018-05-19T09:18:10.381Z,450.00
2018-05-19T09:19:10.383Z,466.88
2018-05-19T09:20:31.412Z,478.13
2018-05-19T09:21:10.532Z,489.38
2018-05-19T09:22:10.433Z,483.75
2018-05-19T09:23:10.466Z,483.75
2018-05-19T09:24:10.447Z,483.75
2018-05-19T09:25:10.486Z,478.13
2018-05-19T09:26:31.497Z,483.75
2018-05-19T09:27:10.493Z,478.13
2018-05-19T09:28:10.511Z,478.13
2018-05-19T09:29:10.520Z,478.13
2018-05-19T09:30:10.536Z,478.13
2018-05-19T09:31:10.548Z,472.50
2018-05-19T09:32:31.576Z,478.13
2018-05-19T09:33:10.574Z,483.75
2018-05-19T09:34:10.587Z,489.38
2018-05-19T09:35:10.636Z,500.63
2018-05-19T09:36:10.615Z,506.25
2018-05-19T09:37:10.631Z,506.25
2018-05-19T09:38:31.652Z,511.88
2018-05-19T09:39:10.651Z,511.88
2018-05-19T09:40:10.672Z,511.88
2018-05-19T09:41:10.678Z,500.63
2018-05-19T09:42:10.692Z,495.00
2018-05-19T09:43:10.712Z,489.38
2018-05-19T09:44:32.695Z,489.38
2018-05-19T09:45:10.745Z,489.38
2018-05-19T09:46:10.751Z,483.75
2018-05-19T09:47:10.767Z,483.75
2018-05-19T09:48:11.664Z,483.75
2018-05-19T09:49:10.791Z,483.75
2018-05-19T09:50:31.821Z,478.13
2018-05-19T09:51:10.811Z,466.88
2018-05-19T09:52:11.701Z,455.63
2018-05-19T09:53:10.940Z,461.25
2018-05-19T09:54:10.861Z,466.88
2018-05-19T09:55:10.867Z,466.88
2018-05-19T09:56:31.900Z,466.88
2018-05-19T09:57:10.901Z,461.25
2018-05-19T09:58:10.907Z,455.63
2018-05-19T09:59:10.937Z,461.25
2018-05-19T10:00:10.933Z,466.88
2018-05-19T10:01:10.955Z,472.50
2018-05-19T10:02:31.983Z,478.13
2018-05-19T10:03:10.981Z,489.38
2018-05-19T10:04:10.992Z,489.38
2018-05-19T10:05:11.098Z,495.00
2018-05-19T10:06:11.029Z,489.38
2018-05-19T10:07:11.037Z,495.00
2018-05-19T10:08:32.065Z,506.25
2018-05-19T10:09:11.069Z,511.88
2018-05-19T10:10:11.082Z,517.50
2018-05-19T10:11:11.099Z,511.88
2018-05-19T10:12:11.104Z,506.25
2018-05-19T10:13:11.141Z,506.25
2018-05-19T10:14:32.146Z,511.88
2018-05-19T10:15:11.152Z,540.00
2018-05-19T10:16:11.177Z,545.63
2018-05-19T10:17:11.200Z,551.25
2018-05-19T10:18:11.189Z,579.38
2018-05-19T10:19:11.207Z,596.25
2018-05-19T10:20:32.238Z,624.38
2018-05-19T10:21:11.233Z,641.25
2018-05-19T10:22:11.250Z,641.25
2018-05-19T10:23:11.302Z,646.88
2018-05-19T10:24:11.279Z,646.88
2018-05-19T10:25:11.289Z,646.88
2018-05-19T10:26:32.341Z,646.88
2018-05-19T10:27:11.328Z,618.75
2018-05-19T10:28:11.421Z,613.13
2018-05-19T10:29:11.339Z,607.50
2018-05-19T10:30:11.364Z,618.75
2018-05-19T10:31:11.375Z,601.88
2018-05-19T10:32:32.405Z,590.63
2018-05-19T10:33:11.398Z,590.63
2018-05-19T10:34:11.419Z,596.25
2018-05-19T10:35:11.442Z,596.25
2018-05-19T10:36:11.447Z,590.63
2018-05-19T10:37:11.464Z,596.25
2018-05-19T10:38:32.492Z,585.00
2018-05-19T10:39:11.558Z,573.75
2018-05-19T10:40:11.503Z,562.50
2018-05-19T10:41:11.525Z,556.88
2018-05-19T10:42:11.533Z,551.25
2018-05-19T10:43:11.548Z,545.63
2018-05-19T10:44:32.571Z,568.13
2018-05-19T10:45:11.584Z,568.13
2018-05-19T10:46:11.596Z,556.88
2018-05-19T10:47:11.610Z,562.50
2018-05-19T10:48:11.623Z,551.25
2018-05-19T10:49:11.638Z,556.88
2018-05-19T10:50:32.672Z,556.88
2018-05-19T10:51:11.658Z,568.13
2018-05-19T10:52:11.679Z,568.13
2018-05-19T10:53:11.694Z,556.88
2018-05-19T10:54:11.720Z,545.63
2018-05-19T10:55:11.727Z,540.00
2018-05-19T10:56:32.748Z,534.38
2018-05-19T10:57:11.757Z,528.75
2018-05-19T10:58:11.767Z,528.75
2018-05-19T10:59:11.779Z,528.75
2018-05-19T11:00:11.806Z,534.38
2018-05-19T11:01:11.813Z,534.38
2018-05-19T11:02:32.847Z,540.00
2018-05-19T11:03:11.842Z,551.25
2018-05-19T11:04:11.855Z,528.75
2018-05-19T11:05:11.885Z,545.63
2018-05-19T11:06:11.884Z,545.63
2018-05-19T11:07:11.913Z,511.88
2018-05-19T11:08:32.928Z,500.63
2018-05-19T11:09:11.928Z,506.25
2018-05-19T11:10:11.947Z,511.88
2018-05-19T11:11:11.957Z,523.13
2018-05-19T11:12:11.984Z,534.38
2018-05-19T11:13:11.993Z,540.00
2018-05-19T11:14:33.016Z,551.25
2018-05-19T11:15:12.019Z,556.88
2018-05-19T11:16:12.037Z,562.50
2018-05-19T11:17:12.047Z,573.75
2018-05-19T11:18:12.067Z,579.38
2018-05-19T11:19:12.074Z,585.00
2018-05-19T11:20:33.111Z,556.88
2018-05-19T11:21:12.108Z,534.38
2018-05-19T11:22:12.125Z,523.13
2018-05-19T11:23:12.140Z,523.13
2018-05-19T11:24:12.149Z,523.13
2018-05-19T11:25:12.160Z,534.38
2018-05-19T11:26:33.196Z,556.88
2018-05-19T11:27:12.200Z,545.63
2018-05-19T11:28:12.210Z,573.75
2018-05-19T11:29:12.234Z,551.25
2018-05-19T11:30:12.248Z,517.50
2018-05-19T11:31:12.251Z,495.00
2018-05-19T11:32:33.281Z,483.75
2018-05-19T11:33:12.286Z,489.38
2018-05-19T11:34:12.296Z,495.00
2018-05-19T11:35:12.321Z,489.38
2018-05-19T11:36:12.335Z,500.63
2018-05-19T11:37:12.349Z,517.50
2018-05-19T11:38:33.376Z,528.75
2018-05-19T11:39:12.369Z,545.63
2018-05-19T11:40:12.392Z,568.13
2018-05-19T11:41:12.404Z,573.75
2018-05-19T11:42:12.419Z,590.63
2018-05-19T11:43:12.438Z,596.25
2018-05-19T11:44:33.467Z,590.63
2018-05-19T11:45:12.468Z,590.63
2018-05-19T11:46:12.482Z,641.25
2018-05-19T11:47:12.495Z,641.25
2018-05-19T11:48:12.517Z,658.13
2018-05-19T11:49:12.519Z,596.25
2018-05-19T11:50:33.596Z,556.88
2018-05-19T11:51:12.557Z,551.25
2018-05-19T11:52:12.572Z,562.50
2018-05-19T11:53:12.589Z,562.50
2018-05-19T11:54:12.603Z,585.00
2018-05-19T11:55:12.608Z,596.25
2018-05-19T11:56:33.641Z,607.50
2018-05-19T11:57:12.657Z,618.75
2018-05-19T11:58:12.657Z,630.00
2018-05-19T11:59:12.681Z,641.25
2018-05-19T12:00:12.697Z,686.25
2018-05-19T12:01:12.704Z,697.50
2018-05-19T12:02:33.732Z,736.88
2018-05-19T12:03:12.738Z,781.88
2018-05-19T12:04:12.750Z,838.13
2018-05-19T12:05:12.765Z,815.63
2018-05-19T12:06:12.787Z,770.63
2018-05-19T12:07:12.796Z,720.00
2018-05-19T12:08:33.823Z,720.00
2018-05-19T12:09:12.833Z,770.63
2018-05-19T12:10:12.847Z,1108.13
2018-05-19T12:11:12.867Z,2058.75
2018-05-19T12:12:12.883Z,1057.50
2018-05-19T12:13:12.894Z,1355.63
2018-05-19T12:14:33.929Z,1113.75
2018-05-19T12:15:12.934Z,2570.63
2018-05-19T12:16:12.952Z,1445.63
2018-05-19T12:17:12.953Z,1698.75
2018-05-19T12:18:12.973Z,1726.88
2018-05-19T12:19:12.991Z,1648.13
2018-05-19T12:20:34.029Z,1361.25
2018-05-19T12:21:13.030Z,1288.13
2018-05-19T12:22:13.042Z,1299.38
2018-05-19T12:23:13.062Z,1350.00
2018-05-19T12:24:13.077Z,1445.63
2018-05-19T12:25:13.095Z,1867.50
2018-05-19T12:26:34.161Z,1586.25
2018-05-19T12:27:13.133Z,1631.25
2018-05-19T12:28:13.142Z,1513.13
2018-05-19T12:29:13.172Z,1524.38
2018-05-19T12:30:13.189Z,1681.88
2018-05-19T12:31:13.203Z,1665.00
2018-05-19T12:32:34.235Z,1985.63
2018-05-19T12:33:13.248Z,2013.75
2018-05-19T12:34:13.261Z,2165.63
2018-05-19T12:35:13.289Z,2092.50
2018-05-19T12:36:13.299Z,1951.88
2018-05-19T12:37:13.328Z,1715.63
2018-05-19T12:38:34.358Z,1659.38
2018-05-19T12:39:13.360Z,1681.88
2018-05-19T12:40:13.381Z,1372.50
2018-05-19T12:41:13.406Z,1119.38
2018-05-19T12:42:13.436Z,1507.50
2018-05-19T12:43:13.477Z,1546.88
2018-05-19T12:44:34.503Z,1653.75
2018-05-19T12:45:13.484Z,1929.38
2018-05-19T12:46:13.515Z,1929.38